Time;durP1;ratioP1;P1;durP2;ratioP2;P2;SDS_P1;SDS_P2;PMS_P1;PMS_P2;Temp;Humidity;BMP_temperature;BMP_pressure;BME280_temperature;BME280_humidity;BME280_pressure;Samples;Min_cycle;Max_cycle;Signal;HPM_P1;HPM_P2
2023/04/10 00:01:34;;;;;;;73.68;39.47;;;;;;;-144.73;100.00;54407.69;5051335;28;20033;-70
2023/04/10 00:04:00;;;;;;;62.90;34.78;;;;;;;-144.73;100.00;54448.75;5051426;28;20149;-70
2023/04/10 00:06:26;;;;;;;67.93;35.30;;;;;;;-144.73;100.00;54424.13;5050840;28;20491;-71
2023/04/10 00:08:52;;;;;;;69.68;36.83;;;;;;;-144.73;100.00;54428.22;5067913;28;20024;-70
2023/04/10 00:11:18;;;;;;;69.05;37.08;;;;;;;-144.73;100.00;54432.31;5051875;28;20051;-70
2023/04/10 00:13:43;;;;;;;63.28;34.70;;;;;;;-144.73;100.00;54436.44;5058899;28;20494;-71
2023/04/10 00:16:10;;;;;;;68.20;38.17;;;;;;;-144.73;100.00;54424.13;5079346;28;20067;-70
2023/04/10 00:18:35;;;;;;;73.32;37.38;;;;;;;-144.73;100.00;54420.00;5069697;28;20028;-70
2023/04/10 00:21:02;;;;;;;68.93;36.97;;;;;;;-144.73;100.00;54461.06;5054630;28;20029;-71
2023/04/10 00:23:30;;;;;;;74.47;39.05;;;;;;;-144.73;100.00;54463.13;5051338;28;20077;-71
2023/04/10 00:25:56;;;;;;;81.00;40.13;;;;;;;-144.73;100.00;54424.13;5050720;28;20033;-70
2023/04/10 00:28:21;;;;;;;70.90;36.17;;;;;;;-144.73;100.00;54432.31;5049878;28;20035;-71
2023/04/10 00:30:47;;;;;;;76.00;36.67;;;;;;;-144.73;100.00;54415.91;5050744;28;20502;-71
2023/04/10 00:33:13;;;;;;;82.57;39.58;;;;;;;-144.73;100.00;54397.44;5050888;28;20490;-71
2023/04/10 00:35:38;;;;;;;69.10;35.20;;;;;;;-144.73;100.00;54395.38;5050805;28;20036;-71
2023/04/10 00:38:04;;;;;;;72.90;37.13;;;;;;;-144.73;100.00;54428.22;5068836;28;20027;-71
2023/04/10 00:40:29;;;;;;;84.35;37.92;;;;;;;-144.73;100.00;54415.91;5050288;28;20060;-71
2023/04/10 00:42:54;;;;;;;70.47;38.55;;;;;;;-144.73;100.00;54411.81;5051457;28;20020;-71
2023/04/10 00:45:20;;;;;;;68.15;35.22;;;;;;;-144.73;100.00;54424.13;5072044;28;20116;-71
2023/04/10 00:47:45;;;;;;;75.38;37.08;;;;;;;-144.73;100.00;54411.81;5068882;28;20463;-71
2023/04/10 00:50:11;;;;;;;76.35;39.97;;;;;;;-144.73;100.00;54430.28;5071985;28;20033;-71
2023/04/10 00:52:37;;;;;;;73.10;38.28;;;;;;;-144.73;100.00;54411.81;5057295;28;20028;-71
2023/04/10 00:55:03;;;;;;;82.22;39.33;;;;;;;-144.73;100.00;54432.31;5056361;28;20028;-71
2023/04/10 00:57:28;;;;;;;81.57;40.72;;;;;;;-144.73;100.00;54434.38;5054818;28;20170;-71
2023/04/10 00:59:54;;;;;;;70.65;36.47;;;;;;;-144.73;100.00;54387.19;5054297;28;20063;-71
2023/04/10 01:02:20;;;;;;;82.28;39.70;;;;;;;-144.73;100.00;54444.66;5075672;28;20016;-71
2023/04/10 01:04:46;;;;;;;79.18;40.10;;;;;;;-144.73;100.00;54444.66;5075899;28;20081;-71
2023/04/10 01:07:20;;;;;;;77.05;38.10;;;;;;;-144.73;100.00;54411.81;5055425;28;20391;-71
2023/04/10 01:09:54;;;;;;;71.15;37.95;;;;;;;-144.73;100.00;54411.81;5069146;28;20033;-71
2023/04/10 01:12:46;;;;;;;80.55;38.53;;;;;;;-144.73;100.00;54436.44;5070997;28;20081;-71
2023/04/10 01:15:18;;;;;;;77.78;38.10;;;;;;;-144.73;100.00;54411.81;5064921;28;20033;-71
2023/04/10 01:18:00;;;;;;;76.65;38.38;;;;;;;-144.73;100.00;54448.75;5069271;28;20020;-71
2023/04/10 01:20:29;;;;;;;79.00;38.05;;;;;;;-144.73;100.00;54452.84;5055937;28;20032;-71
2023/04/10 01:23:34;;;;;;;76.15;39.55;;;;;;;-144.73;100.00;54407.69;5055766;28;20053;-71
2023/04/10 01:26:02;;;;;;;76.05;37.15;;;;;;;-144.73;100.00;54424.13;5053285;28;20064;-70
2023/04/10 01:29:00;;;;;;;83.45;39.30;;;;;;;-144.73;100.00;54469.28;5054722;28;20036;-71
2023/04/10 01:31:38;;;;;;;79.32;35.90;;;;;;;-144.73;100.00;54436.44;5028120;28;20062;-70
2023/04/10 01:34:09;;;;;;;85.18;39.83;;;;;;;-144.73;100.00;54424.13;5054085;28;20087;-71
2023/04/10 01:36:48;;;;;;;82.40;39.17;;;;;;;-144.73;100.00;54438.50;5054110;28;20033;-71
2023/04/10 01:39:17;;;;;;;73.85;36.60;;;;;;;-144.73;100.00;54395.38;5054881;28;20024;-71
2023/04/10 01:41:44;;;;;;;77.70;39.55;;;;;;;-144.73;100.00;54409.75;5063158;28;20032;-71
2023/04/10 01:44:13;;;;;;;73.30;39.33;;;;;;;-144.73;100.00;54420.00;5064613;28;20074;-70
2023/04/10 01:46:39;;;;;;;71.82;37.55;;;;;;;-144.73;100.00;54428.22;5075910;28;20036;-70
2023/04/10 01:49:05;;;;;;;72.13;36.90;;;;;;;-144.73;100.00;54450.81;5053277;28;20429;-71
2023/04/10 01:51:33;;;;;;;78.07;38.95;;;;;;;-144.73;100.00;54448.75;5075349;28;20060;-71
2023/04/10 01:54:00;;;;;;;79.25;39.70;;;;;;;-144.73;100.00;54415.91;5055658;28;20024;-70
2023/04/10 01:56:27;;;;;;;78.90;37.40;;;;;;;-144.73;100.00;54473.38;5070845;28;20372;-71
2023/04/10 01:58:53;;;;;;;76.25;37.72;;;;;;;-144.73;100.00;54456.97;5053360;28;20052;-70
2023/04/10 02:01:22;;;;;;;78.25;37.38;;;;;;;-144.73;100.00;54444.66;5073119;28;20032;-70
2023/04/10 02:03:47;;;;;;;70.90;35.90;;;;;;;-144.73;100.00;54395.38;5053938;28;20024;-70
2023/04/10 02:06:45;;;;;;;74.90;36.85;;;;;;;-144.73;100.00;54428.22;5071046;28;20036;-72
2023/04/10 02:09:19;;;;;;;84.30;38.65;;;;;;;-144.73;100.00;54481.59;5053292;28;20482;-70
2023/04/10 02:11:57;;;;;;;72.03;37.60;;;;;;;-144.73;100.00;54469.28;5050391;28;20028;-70
2023/04/10 02:14:28;;;;;;;79.30;36.97;;;;;;;-144.73;100.00;54438.50;5074817;28;20023;-70
2023/04/10 02:16:55;;;;;;;76.57;38.80;;;;;;;-144.73;100.00;54411.81;5057649;28;20055;-70
2023/04/10 02:19:25;;;;;;;77.43;39.50;;;;;;;-144.73;100.00;54461.06;5069055;28;20059;-71
2023/04/10 02:21:52;;;;;;;81.18;38.40;;;;;;;-144.73;100.00;54456.97;5073432;28;20112;-70
2023/04/10 02:24:19;;;;;;;74.40;36.83;;;;;;;-144.73;100.00;54481.59;5075252;28;20114;-71
2023/04/10 02:26:44;;;;;;;74.97;37.95;;;;;;;-144.73;100.00;54399.50;5053051;28;20064;-70
2023/04/10 02:29:10;;;;;;;76.55;38.65;;;;;;;-144.73;100.00;54415.91;5067495;28;20071;-71
2023/04/10 02:31:36;;;;;;;76.80;37.08;;;;;;;-144.73;100.00;54444.66;5070763;28;20039;-71
2023/04/10 02:34:01;;;;;;;74.85;37.45;;;;;;;-144.73;100.00;54420.00;5051570;28;20016;-71
2023/04/10 02:36:27;;;;;;;71.68;35.28;;;;;;;-144.73;100.00;54436.44;5052867;28;20033;-70
2023/04/10 02:38:52;;;;;;;70.03;34.92;;;;;;;-144.73;100.00;54452.84;5053650;28;20111;-71
2023/04/10 02:41:17;;;;;;;71.78;37.17;;;;;;;-144.73;100.00;54424.13;5070079;28;20106;-70
2023/04/10 02:43:43;;;;;;;71.82;36.97;;;;;;;-144.73;100.00;54428.22;5052795;28;20012;-70
2023/04/10 02:46:08;;;;;;;69.47;37.15;;;;;;;-144.73;100.00;54436.44;5070620;28;20052;-71
2023/04/10 02:48:33;;;;;;;71.80;37.33;;;;;;;-144.73;100.00;54448.75;5068510;28;20081;-71
2023/04/10 02:50:59;;;;;;;76.60;40.25;;;;;;;-144.73;100.00;54448.75;5052109;28;20043;-71
2023/04/10 02:53:24;;;;;;;80.95;37.92;;;;;;;-144.73;100.00;54424.13;5048043;28;20044;-70
2023/04/10 02:55:52;;;;;;;78.60;40.50;;;;;;;-144.73;100.00;54424.13;5052408;28;20051;-71
2023/04/10 02:58:17;;;;;;;78.35;38.60;;;;;;;-144.73;100.00;54454.91;5072522;28;20062;-71
2023/04/10 03:00:50;;;;;;;75.28;37.47;;;;;;;-144.73;100.00;54440.53;5052718;28;20036;-71
2023/04/10 03:03:17;;;;;;;72.10;36.03;;;;;;;-144.73;100.00;54407.69;5055312;28;20130;-71
2023/04/10 03:05:45;;;;;;;84.10;39.88;;;;;;;-144.73;100.00;54452.84;5052192;28;20114;-71
2023/04/10 03:08:12;;;;;;;68.50;35.35;;;;;;;-144.73;100.00;54415.91;5068046;28;20046;-71
2023/04/10 03:10:37;;;;;;;76.65;38.80;;;;;;;-144.73;100.00;54432.31;5069587;28;20059;-71
2023/04/10 03:13:02;;;;;;;80.15;39.13;;;;;;;-144.73;100.00;54452.84;5072440;28;20056;-71
2023/04/10 03:15:28;;;;;;;76.47;37.63;;;;;;;-144.73;100.00;54440.53;5052340;28;20043;-70
2023/04/10 03:17:53;;;;;;;75.15;39.13;;;;;;;-144.73;100.00;54448.75;5050020;28;20448;-71
2023/04/10 03:20:18;;;;;;;76.55;37.28;;;;;;;-144.73;100.00;54428.22;5052358;28;20123;-70
2023/04/10 03:22:44;;;;;;;73.90;37.03;;;;;;;-144.73;100.00;54461.06;5072209;28;20028;-70
2023/04/10 03:25:09;;;;;;;79.47;38.72;;;;;;;-144.73;100.00;54428.22;5052077;28;20036;-71
2023/04/10 03:27:35;;;;;;;74.43;37.92;;;;;;;-144.73;100.00;54422.06;5052083;28;20092;-71
2023/04/10 03:30:01;;;;;;;71.45;36.20;;;;;;;-144.73;100.00;54473.38;5051364;28;20455;-71
2023/04/10 03:32:29;;;;;;;75.13;37.22;;;;;;;-144.73;100.00;54438.50;5052237;28;20403;-71
2023/04/10 03:34:56;;;;;;;82.53;39.20;;;;;;;-144.73;100.00;54442.59;5052038;28;20033;-71
2023/04/10 03:37:21;;;;;;;77.15;38.10;;;;;;;-144.73;100.00;54461.06;5070167;28;20062;-71
2023/04/10 03:39:46;;;;;;;72.50;35.63;;;;;;;-144.73;100.00;54452.84;5050895;28;20028;-71
2023/04/10 03:42:12;;;;;;;73.38;37.45;;;;;;;-144.73;100.00;54452.84;5052143;28;20028;-71
2023/04/10 03:44:37;;;;;;;74.40;38.00;;;;;;;-144.73;100.00;54420.00;5069466;28;20023;-72
2023/04/10 03:47:02;;;;;;;77.00;37.30;;;;;;;-144.73;100.00;54461.06;5053520;28;20032;-71
2023/04/10 03:49:28;;;;;;;79.70;37.80;;;;;;;-144.73;100.00;54467.22;5071427;28;20037;-71
2023/04/10 03:51:53;;;;;;;73.47;37.60;;;;;;;-144.73;100.00;54452.84;5051462;28;20511;-71
2023/04/10 03:54:19;;;;;;;73.05;37.00;;;;;;;-144.73;100.00;54440.53;5071348;28;20029;-71
2023/04/10 03:56:44;;;;;;;74.28;36.85;;;;;;;-144.73;100.00;54415.91;5051818;28;20052;-71
2023/04/10 03:59:09;;;;;;;79.15;40.00;;;;;;;-144.73;100.00;54411.81;5053108;28;20024;-71
2023/04/10 04:01:35;;;;;;;79.43;39.83;;;;;;;-144.73;100.00;54456.97;5050560;28;20032;-71
2023/04/10 04:04:00;;;;;;;71.57;37.25;;;;;;;-144.73;100.00;54407.69;5051391;28;20029;-72
2023/04/10 04:06:26;;;;;;;68.38;36.10;;;;;;;-144.73;100.00;54407.69;5050976;28;20044;-71
2023/04/10 04:08:51;;;;;;;73.97;36.92;;;;;;;-144.73;100.00;54444.66;5068925;28;20032;-71
2023/04/10 04:11:17;;;;;;;71.25;35.55;;;;;;;-144.73;100.00;54444.66;5072661;28;20039;-71
2023/04/10 04:13:42;;;;;;;71.35;36.55;;;;;;;-144.73;100.00;54422.06;5051949;28;20066;-71
2023/04/10 04:16:08;;;;;;;72.35;36.65;;;;;;;-144.73;100.00;54456.97;5051020;28;20124;-71
2023/04/10 04:18:34;;;;;;;68.60;35.15;;;;;;;-144.73;100.00;54420.00;5050860;28;20035;-71
2023/04/10 04:20:59;;;;;;;70.85;35.58;;;;;;;-144.73;100.00;54440.53;5051072;28;20131;-71
2023/04/10 04:23:24;;;;;;;71.03;36.67;;;;;;;-144.73;100.00;54465.16;5050072;28;20092;-71
2023/04/10 04:25:51;;;;;;;72.47;34.17;;;;;;;-144.73;100.00;54411.81;5048744;28;20163;-71
2023/04/10 04:28:17;;;;;;;69.82;36.13;;;;;;;-144.73;100.00;54454.91;5050595;28;20028;-71
2023/04/10 04:30:42;;;;;;;69.10;35.60;;;;;;;-144.73;100.00;54440.53;5068660;28;20514;-71
2023/04/10 04:33:07;;;;;;;74.97;38.00;;;;;;;-144.73;100.00;54444.66;5051379;28;20032;-71
2023/04/10 04:35:33;;;;;;;72.00;35.90;;;;;;;-144.73;100.00;54436.44;5068490;28;20043;-71
2023/04/10 04:37:58;;;;;;;65.45;35.30;;;;;;;-144.73;100.00;54436.44;5052733;28;20043;-71
2023/04/10 04:40:23;;;;;;;69.25;35.42;;;;;;;-144.73;100.00;54452.84;5068554;28;20032;-72
2023/04/10 04:42:49;;;;;;;63.90;35.15;;;;;;;-144.73;100.00;54456.97;5069127;28;20029;-72
2023/04/10 04:45:14;;;;;;;70.80;37.22;;;;;;;-144.73;100.00;54440.53;5050498;28;20037;-71
2023/04/10 04:47:40;;;;;;;68.05;35.17;;;;;;;-144.73;100.00;54440.53;5067622;28;20028;-71
2023/04/10 04:50:06;;;;;;;69.00;35.60;;;;;;;-144.73;100.00;54444.66;5050264;28;20037;-71
2023/04/10 04:52:34;;;;;;;71.68;35.22;;;;;;;-144.73;100.00;54446.69;5051003;28;20048;-70
2023/04/10 04:54:59;;;;;;;63.38;33.72;;;;;;;-144.73;100.00;54436.44;5052684;28;20082;-70
2023/04/10 04:57:25;;;;;;;68.18;36.50;;;;;;;-144.73;100.00;54493.91;5058224;28;20020;-71
2023/04/10 04:59:50;;;;;;;70.50;34.85;;;;;;;-144.73;100.00;54477.47;5050234;28;20075;-72
2023/04/10 05:02:17;;;;;;;69.85;36.38;;;;;;;-144.73;100.00;54428.22;5050729;28;20075;-71
2023/04/10 05:04:43;;;;;;;69.88;34.88;;;;;;;-144.73;100.00;54448.75;5050794;28;20032;-72
2023/04/10 05:07:08;;;;;;;73.40;36.65;;;;;;;-144.73;100.00;54463.13;5066826;28;20021;-72
2023/04/10 05:09:34;;;;;;;65.95;33.53;;;;;;;-144.73;100.00;54465.16;5068569;28;20025;-72
2023/04/10 05:11:59;;;;;;;69.65;36.47;;;;;;;-144.73;100.00;54465.16;5050040;28;20076;-72
2023/04/10 05:14:24;;;;;;;67.35;35.40;;;;;;;-144.73;100.00;54432.31;5068452;28;20035;-72
2023/04/10 05:16:50;;;;;;;66.03;34.70;;;;;;;-144.73;100.00;54444.66;5050258;28;20457;-72
2023/04/10 05:19:15;;;;;;;70.88;35.90;;;;;;;-144.73;100.00;54461.06;5056510;28;20020;-72
2023/04/10 05:21:41;;;;;;;68.13;35.25;;;;;;;-144.73;100.00;54456.97;5070346;28;20047;-72
2023/04/10 05:24:06;;;;;;;65.75;34.65;;;;;;;-144.73;100.00;54420.00;5068991;28;20075;-72
2023/04/10 05:26:32;;;;;;;58.47;31.13;;;;;;;-144.73;100.00;54473.38;5050159;28;20032;-72
2023/04/10 05:28:57;;;;;;;65.72;34.47;;;;;;;-144.73;100.00;54456.97;5052575;28;20099;-72
2023/04/10 05:31:22;;;;;;;63.58;33.58;;;;;;;-144.73;100.00;54452.84;5050105;28;20032;-72
2023/04/10 05:33:48;;;;;;;68.50;34.55;;;;;;;-144.73;100.00;54456.97;5050549;28;20016;-72
2023/04/10 05:36:13;;;;;;;60.40;33.58;;;;;;;-144.73;100.00;54424.13;5054380;28;20075;-72
2023/04/10 05:38:38;;;;;;;61.67;33.53;;;;;;;-144.73;100.00;54459.00;5071715;28;20157;-72
2023/04/10 05:41:04;;;;;;;63.67;32.30;;;;;;;-144.73;100.00;54432.31;5070911;28;20057;-72
2023/04/10 05:43:29;;;;;;;65.15;32.17;;;;;;;-144.73;100.00;54444.66;5054453;28;20061;-72
2023/04/10 05:45:54;;;;;;;57.40;32.50;;;;;;;-144.73;100.00;54440.53;5054090;28;20035;-72
2023/04/10 05:48:20;;;;;;;56.17;31.83;;;;;;;-144.73;100.00;54432.31;5059538;28;20020;-72
2023/04/10 05:50:46;;;;;;;63.45;32.90;;;;;;;-144.73;100.00;54473.38;5052719;28;20033;-72
2023/04/10 05:53:13;;;;;;;53.95;30.25;;;;;;;-144.73;99.91;54461.06;5076637;28;20067;-72
2023/04/10 05:55:38;;;;;;;59.20;32.65;;;;;;;-144.73;99.76;54489.81;5055621;28;20035;-72
2023/04/10 05:58:04;;;;;;;55.75;30.55;;;;;;;-144.73;99.67;54456.97;5053661;28;20028;-72
2023/04/10 06:00:29;;;;;;;53.45;31.48;;;;;;;-144.73;99.02;54465.16;5053439;28;20056;-72
2023/04/10 06:02:55;;;;;;;55.15;31.50;;;;;;;-144.73;98.03;54448.75;5078317;28;20028;-72
2023/04/10 06:05:20;;;;;;;54.03;29.90;;;;;;;-144.73;97.87;54432.31;5070796;28;20123;-72
2023/04/10 06:07:45;;;;;;;51.65;29.08;;;;;;;-144.73;97.92;54424.13;5053172;28;20047;-72
2023/04/10 06:10:11;;;;;;;60.35;31.35;;;;;;;-144.73;96.78;54477.47;5053153;28;20033;-72
2023/04/10 06:12:36;;;;;;;51.40;30.05;;;;;;;-144.73;96.68;54415.91;5053812;28;20028;-72
2023/04/10 06:15:01;;;;;;;53.05;30.17;;;;;;;-144.73;96.43;54415.91;5052848;28;20495;-72
2023/04/10 06:17:27;;;;;;;56.40;32.40;;;;;;;-144.73;95.84;54473.38;5052360;28;20009;-72
2023/04/10 06:19:52;;;;;;;53.13;31.02;;;;;;;-144.73;95.56;54432.31;5070900;28;20029;-72
2023/04/10 06:22:18;;;;;;;51.45;30.45;;;;;;;-144.73;95.05;54461.06;5054026;28;20031;-72
2023/04/10 06:24:43;;;;;;;54.10;29.80;;;;;;;-144.73;95.17;54395.38;5052633;28;20028;-72
2023/04/10 06:27:08;;;;;;;52.67;30.67;;;;;;;-144.73;94.99;54395.38;5052183;28;20525;-72
2023/04/10 06:29:34;;;;;;;52.13;30.15;;;;;;;-144.73;94.34;54456.97;5057842;28;20030;-72
2023/04/10 06:31:59;;;;;;;52.40;30.80;;;;;;;-144.73;93.85;54473.38;5071609;28;20048;-72
2023/04/10 06:34:25;;;;;;;56.97;29.65;;;;;;;-144.73;93.50;54465.16;5049683;28;20035;-72
2023/04/10 06:36:50;;;;;;;47.58;28.88;;;;;;;-144.73;92.51;54456.97;5052803;28;20090;-72
2023/04/10 06:39:16;;;;;;;48.10;29.27;;;;;;;-144.73;92.14;54440.53;5057064;28;20028;-72
2023/04/10 06:41:42;;;;;;;51.05;29.52;;;;;;;-144.73;91.34;54469.28;5068537;28;20103;-72
2023/04/10 06:44:07;;;;;;;49.72;28.92;;;;;;;-144.73;91.58;54440.53;5067094;28;20028;-72
2023/04/10 06:46:33;;;;;;;55.45;29.83;;;;;;;-144.73;91.50;54456.97;5050523;28;20044;-72
2023/04/10 06:48:58;;;;;;;47.45;27.05;;;;;;;-144.73;91.00;54444.66;5069868;28;20107;-72
2023/04/10 06:51:24;;;;;;;52.33;28.17;;;;;;;-144.73;90.52;54428.22;5057234;28;20025;-72
2023/04/10 06:53:50;;;;;;;53.08;29.45;;;;;;;-144.73;89.79;54465.16;5057895;28;20024;-71
2023/04/10 06:56:16;;;;;;;50.58;30.00;;;;;;;-144.73;89.21;54436.44;5058842;28;20033;-71
2023/04/10 06:58:41;;;;;;;48.15;28.08;;;;;;;-144.73;89.50;54415.91;5052483;28;20070;-71
2023/04/10 07:01:06;;;;;;;49.10;27.67;;;;;;;-144.73;88.66;54407.69;5072555;28;20036;-71
2023/04/10 07:03:32;;;;;;;47.53;28.27;;;;;;;-144.73;88.54;54411.81;5055334;28;20021;-71
2023/04/10 07:05:58;;;;;;;47.60;28.90;;;;;;;-144.73;88.10;54446.69;5055612;28;20063;-71
2023/04/10 07:08:24;;;;;;;47.60;27.50;;;;;;;-144.73;87.22;54448.75;5051371;28;20063;-72
2023/04/10 07:10:49;;;;;;;47.35;27.17;;;;;;;-144.73;87.61;54415.91;5058421;28;20051;-71
2023/04/10 07:13:15;;;;;;;50.17;30.05;;;;;;;-144.73;87.45;54440.53;5060476;28;20020;-71
2023/04/10 07:15:41;;;;;;;47.15;28.20;;;;;;;-144.73;86.71;54469.28;5080275;28;20032;-70
2023/04/10 07:18:06;;;;;;;43.83;28.08;;;;;;;-144.73;86.96;54448.75;5053725;28;20029;-71
2023/04/10 07:20:32;;;;;;;50.78;28.50;;;;;;;-144.73;86.91;54426.16;5039444;28;20019;-72
2023/04/10 07:22:57;;;;;;;48.70;26.90;;;;;;;-144.73;87.13;54434.38;5045416;28;20016;-71
2023/04/10 07:25:23;;;;;;;53.38;28.67;;;;;;;-144.73;86.93;54461.06;5044139;28;20115;-71
2023/04/10 07:27:48;;;;;;;47.83;27.95;;;;;;;-144.73;86.65;54459.00;5041449;28;20046;-71
2023/04/10 07:30:14;;;;;;;51.47;27.45;;;;;;;-144.73;86.53;54456.97;5041850;28;20021;-71
2023/04/10 07:32:40;;;;;;;47.13;28.38;;;;;;;-144.73;86.35;54426.16;5069464;28;20024;-71
2023/04/10 07:35:06;;;;;;;44.70;29.58;;;;;;;-144.73;85.70;54465.16;5046697;28;20071;-71
2023/04/10 07:37:32;;;;;;;51.88;30.23;;;;;;;-144.73;85.13;54432.31;5047654;28;20386;-71
2023/04/10 07:39:57;;;;;;;48.13;27.27;;;;;;;-144.73;85.15;54446.69;5046375;28;20020;-70
2023/04/10 07:42:23;;;;;;;44.33;26.55;;;;;;;-144.73;84.25;54448.75;5046381;28;20019;-71
2023/04/10 07:44:48;;;;;;;46.67;28.63;;;;;;;-144.73;83.40;54428.22;5064869;28;20036;-71
2023/04/10 07:47:14;;;;;;;45.33;27.38;;;;;;;-144.73;83.61;54440.53;5044389;28;20048;-71
2023/04/10 07:49:40;;;;;;;44.10;27.75;;;;;;;-144.73;83.23;54424.13;5075403;28;20058;-71
2023/04/10 07:52:05;;;;;;;44.67;26.67;;;;;;;-144.73;82.01;54444.66;5050352;28;20032;-71
2023/04/10 07:54:32;;;;;;;42.38;26.70;;;;;;;-144.73;81.08;54407.69;5051013;28;20035;-71
2023/04/10 07:56:58;;;;;;;41.47;25.77;;;;;;;-144.73;81.14;54428.22;5067238;28;20102;-71
2023/04/10 07:59:23;;;;;;;37.88;25.33;;;;;;;-144.73;79.49;54407.69;5063491;28;20025;-71
2023/04/10 08:01:49;;;;;;;45.83;29.10;;;;;;;-144.73;78.78;54448.75;5046818;28;20020;-72
2023/04/10 08:04:14;;;;;;;42.88;25.85;;;;;;;-144.73;79.82;54456.97;5063152;28;20009;-71
2023/04/10 08:06:40;;;;;;;44.83;25.13;;;;;;;-144.73;77.96;54426.16;5045428;28;20020;-71
2023/04/10 08:09:05;;;;;;;46.75;26.67;;;;;;;-144.73;77.11;54428.22;5063690;28;20054;-71
2023/04/10 08:11:33;;;;;;;38.65;24.65;;;;;;;-144.73;76.54;54411.81;5067280;28;20032;-72
2023/04/10 08:14:01;;;;;;;36.25;24.38;;;;;;;-144.73;75.71;54452.84;5040987;28;20353;-71
2023/04/10 08:16:28;;;;;;;48.15;24.88;;;;;;;-144.73;74.94;54440.53;5064084;28;20120;-71
2023/04/10 08:18:56;;;;;;;42.60;24.30;;;;;;;-144.73;75.37;54407.69;5045624;28;20104;-71
2023/04/10 08:21:23;;;;;;;37.17;23.60;;;;;;;-144.73;75.31;54452.84;5045944;28;20017;-70
2023/04/10 08:23:53;;;;;;;41.55;25.90;;;;;;;-144.73;74.55;54436.44;5062600;28;20032;-71
2023/04/10 08:26:19;;;;;;;39.50;24.38;;;;;;;-144.73;74.35;54407.69;5045748;28;20031;-71
2023/04/10 08:28:48;;;;;;;36.25;24.02;;;;;;;-144.73;73.64;54383.06;5066119;28;20012;-71
2023/04/10 08:31:13;;;;;;;40.78;24.10;;;;;;;-144.73;72.40;54399.50;5040516;28;20021;-71
2023/04/10 08:33:39;;;;;;;37.15;24.25;;;;;;;-144.73;72.14;54426.16;5051615;28;20023;-71
2023/04/10 08:36:05;;;;;;;36.83;23.55;;;;;;;-144.73;71.47;54424.13;5050526;28;20029;-71
2023/04/10 08:38:30;;;;;;;35.55;22.77;;;;;;;-144.73;71.25;54422.06;5050752;28;20043;-71
2023/04/10 08:40:56;;;;;;;35.10;22.38;;;;;;;-144.73;69.67;54415.91;5043968;28;20028;-72
2023/04/10 08:43:22;;;;;;;33.63;23.30;;;;;;;-144.73;70.83;54428.22;5044117;28;20023;-70
2023/04/10 08:45:48;;;;;;;34.58;21.55;;;;;;;-144.73;70.86;54424.13;5045394;28;20051;-71
2023/04/10 08:48:17;;;;;;;36.65;23.45;;;;;;;-144.73;70.13;54424.13;5060680;28;20038;-71
2023/04/10 08:50:45;;;;;;;34.33;22.83;;;;;;;-144.73;68.79;54434.38;5045486;28;20040;-71
2023/04/10 08:53:13;;;;;;;41.33;24.13;;;;;;;-144.73;68.88;54407.69;5044699;28;20017;-72
2023/04/10 08:55:39;;;;;;;32.33;20.73;;;;;;;-144.73;68.40;54395.38;5047639;28;20025;-72
2023/04/10 08:58:06;;;;;;;37.30;22.75;;;;;;;-144.73;67.39;54428.22;5044585;28;20098;-71
2023/04/10 09:00:37;;;;;;;32.08;21.63;;;;;;;-144.73;66.59;54395.38;5044645;28;20024;-71
2023/04/10 09:03:13;;;;;;;34.70;21.85;;;;;;;-144.73;66.75;54448.75;5052248;28;20021;-71
2023/04/10 09:05:39;;;;;;;29.83;20.52;;;;;;;-144.73;65.12;54426.16;5048088;28;20028;-73
2023/04/10 09:08:08;;;;;;;36.78;21.08;;;;;;;-144.73;64.97;54428.22;5048862;28;20153;-71
2023/04/10 09:10:33;;;;;;;35.30;21.88;;;;;;;-144.73;65.09;54444.66;5050839;28;20024;-70
2023/04/10 09:12:59;;;;;;;30.35;20.83;;;;;;;-144.73;63.59;54395.38;5049110;28;20087;-73
2023/04/10 09:15:25;;;;;;;36.38;20.83;;;;;;;-144.73;62.08;54424.13;5046118;28;20028;-73
2023/04/10 09:18:01;;;;;;;29.52;19.92;;;;;;;-144.73;61.81;54354.34;5067347;28;20402;-73
2023/04/10 09:20:31;;;;;;;28.77;19.65;;;;;;;-144.73;62.37;54407.69;5056552;28;20107;-73
2023/04/10 09:22:57;;;;;;;30.45;18.80;;;;;;;-144.73;59.72;54415.91;5049074;28;20024;-72
2023/04/10 09:25:40;;;;;;;30.05;19.10;;;;;;;-144.73;60.32;54378.97;5056615;28;20023;-70
2023/04/10 09:28:07;;;;;;;42.10;18.50;;;;;;;-144.73;60.55;54358.44;5047344;28;20103;-71
2023/04/10 09:30:38;;;;;;;26.15;17.88;;;;;;;-144.73;59.69;54411.81;5048101;28;20111;-71
2023/04/10 09:33:22;;;;;;;24.67;16.88;;;;;;;-144.73;58.25;54438.50;5065620;28;20024;-71
2023/04/10 09:35:48;;;;;;;33.42;20.95;;;;;;;-144.73;58.21;54432.31;5043739;28;20036;-71
2023/04/10 09:38:19;;;;;;;27.70;18.80;;;;;;;-144.73;58.51;54346.13;5048141;28;20459;-72
2023/04/10 09:40:45;;;;;;;27.17;18.63;;;;;;;-144.73;57.50;54393.34;5045126;28;20095;-72
2023/04/10 09:43:25;;;;;;;53.00;21.15;;;;;;;-144.73;57.42;54378.97;5052470;28;20059;-72
2023/04/10 09:45:55;;;;;;;31.27;19.38;;;;;;;-144.73;57.44;54333.81;5047216;28;20016;-72
2023/04/10 09:48:22;;;;;;;27.83;18.03;;;;;;;-144.73;56.80;54407.69;5051050;28;20037;-72
2023/04/10 09:50:49;;;;;;;32.50;19.30;;;;;;;-144.73;55.77;54415.91;5071058;28;20020;-71
2023/04/10 09:53:18;;;;;;;28.55;17.92;;;;;;;-144.73;56.01;54417.97;5040404;28;20040;-72
2023/04/10 09:55:45;;;;;;;24.85;17.52;;;;;;;-144.73;56.31;54407.69;5068057;28;20032;-71
2023/04/10 09:58:11;;;;;;;23.13;16.75;;;;;;;-144.73;56.23;54362.53;5072983;28;20032;-71
2023/04/10 10:00:42;;;;;;;24.25;17.35;;;;;;;-144.73;54.91;54391.28;5047736;28;20084;-71
2023/04/10 10:03:11;;;;;;;22.63;16.52;;;;;;;-144.73;55.04;54378.97;5065237;28;20020;-72
2023/04/10 10:05:39;;;;;;;29.88;17.60;;;;;;;-144.73;54.07;54395.38;5054804;28;20028;-72
2023/04/10 10:08:05;;;;;;;22.10;16.13;;;;;;;-144.73;53.85;54383.06;5047993;28;20020;-71
2023/04/10 10:10:30;;;;;;;21.58;15.55;;;;;;;-144.73;52.98;54383.06;5043661;28;20025;-71
2023/04/10 10:13:00;;;;;;;19.92;14.98;;;;;;;-144.73;51.52;54391.28;5047107;28;20016;-72
2023/04/10 10:16:05;;;;;;;24.67;15.52;;;;;;;-144.73;50.28;54374.84;5047408;28;20039;-73
2023/04/10 10:18:46;;;;;;;23.13;14.05;;;;;;;-144.73;48.30;54362.53;5046442;28;20020;-72
2023/04/10 10:21:12;;;;;;;19.10;13.05;;;;;;;-144.73;47.86;54454.91;5067767;28;20024;-72
2023/04/10 10:23:39;;;;;;;15.82;12.35;;;;;;;-144.73;47.98;54430.28;5047798;28;20021;-71
2023/04/10 10:26:08;;;;;;;19.50;12.73;;;;;;;-144.73;47.72;54387.19;5066863;28;20028;-72
2023/04/10 10:28:34;;;;;;;22.15;16.30;;;;;;;-144.73;48.31;54387.19;5044100;28;20024;-71
2023/04/10 10:31:03;;;;;;;19.27;13.07;;;;;;;-144.73;48.30;54415.91;5051343;28;20501;-72
2023/04/10 10:33:29;;;;;;;17.33;13.90;;;;;;;-144.73;48.78;54411.81;5065298;28;20078;-72
2023/04/10 10:36:02;;;;;;;21.77;13.82;;;;;;;-144.73;48.35;54370.75;5047433;28;20024;-71
2023/04/10 10:38:28;;;;;;;18.45;13.65;;;;;;;-144.73;48.22;54430.28;5048121;28;20016;-72
2023/04/10 10:41:05;;;;;;;23.83;13.40;;;;;;;-144.73;47.22;54407.69;5066448;28;20027;-73
2023/04/10 10:43:45;;;;;;;19.30;11.73;;;;;;;-144.73;46.97;54424.13;5048403;28;20051;-73
2023/04/10 10:46:17;;;;;;;15.45;11.63;;;;;;;-144.73;45.91;54362.53;5048951;28;20032;-72
2023/04/10 10:49:12;;;;;;;18.17;11.63;;;;;;;-144.73;44.14;54360.50;5040393;28;20071;-73
2023/04/10 10:51:48;;;;;;;14.43;10.60;;;;;;;-144.73;43.50;54378.97;5028860;28;20086;-73
2023/04/10 10:54:33;;;;;;;14.95;9.75;;;;;;;-144.73;41.58;54378.97;5051255;28;20020;-73
2023/04/10 10:57:00;;;;;;;13.23;9.80;;;;;;;-144.73;41.79;54374.84;5043560;28;20111;-71
2023/04/10 10:59:47;;;;;;;14.77;10.73;;;;;;;-144.73;42.40;54424.13;5047152;28;20048;-71